Newvida — V7KQ7 — position and weather

sailwx.info

Track history (hours):
 
Tides and Currents Weather Stations Pressure Air Temp Water Temp Dewpoint Dewpoint Depression Visibility Wind Speed Wind Dir Waves Ship Positions

Newvida

Last reported at 2016-Aug-29 15:22 UTC. Time now 2016-Aug-29 18:00 UTC.
Position N 40°32' E 014°15'.

Length 56 m; draft 2.4 m.

Type: Pleasure craft. MMSI: 538080049.

Date/timePositionNaut miles runAvg speedWind from/ knotsBaromVisibWave heightAir tempDewpointWater temp
2016-Aug-29 15:22N 40°32' E 014°15'0 0.0
2016-Aug-29 13:25N 40°32' E 014°15'0 0.0
2016-Aug-28 23:32N 40°32' E 014°15'0 0.0
2016-Aug-28 16:11N 40°32' E 014°15'0 0.0
2016-Aug-28 15:23N 40°32' E 014°15'0 0.0
2016-Aug-28 14:32N 40°32' E 014°15'0 0.0
2016-Aug-28 13:32N 40°32' E 014°15'0 0.0
2016-Aug-28 12:29N 40°32' E 014°15'0 0.0
2016-Aug-28 11:32N 40°32' E 014°15'  
2016-Aug-24 20:19N 39°03' E 015°05'1810.3
2016-Aug-24 18:31N 38°45' E 015°08'8 7.4
2016-Aug-24 17:29N 38°37' E 015°04'0 0.0
2016-Aug-24 16:22N 38°37' E 015°04'0 0.0
2016-Aug-24 06:24N 38°37' E 015°04'11 5.5
2016-Aug-24 04:28N 38°28' E 014°58'0 0.0
2016-Aug-24 03:25N 38°28' E 014°58'0 0.0
2016-Aug-24 02:19N 38°28' E 014°58'0 0.0
2016-Aug-23 21:10N 38°28' E 014°58'0 0.0
2016-Aug-23 16:31N 38°28' E 014°58'0 0.0
2016-Aug-23 11:07N 38°28' E 014°58'0 0.0
2016-Aug-23 10:19N 38°28' E 014°58'0 0.0
2016-Aug-23 09:04N 38°28' E 014°58'0 0.0
2016-Aug-23 07:13N 38°28' E 014°58'0 0.0
2016-Aug-23 05:22N 38°28' E 014°58'0 0.0
2016-Aug-23 03:28N 38°28' E 014°58'0 0.0
2016-Aug-23 02:31N 38°28' E 014°58'0 0.0
2016-Aug-23 00:16N 38°28' E 014°58'1 1.0
2016-Aug-22 23:33N 38°28' E 014°58'1110.9
2016-Aug-22 22:32N 38°25' E 015°12'1111.4
2016-Aug-22 21:33N 38°22' E 015°26'1010.5
2016-Aug-22 20:33N 38°19' E 015°39'7 7.0
2016-Aug-22 19:33N 38°12' E 015°37'1110.8
2016-Aug-22 18:33N 38°02' E 015°33'9 9.1
2016-Aug-22 17:33N 37°56' E 015°25'8 8.1
2016-Aug-22 16:33N 37°50' E 015°18'1 0.7
2016-Aug-22 15:33N 37°50' E 015°17'0 0.0
2016-Aug-22 14:33N 37°50' E 015°17'0 0.0
2016-Aug-22 13:33N 37°50' E 015°17'3 0.8
2016-Aug-22 10:33N 37°48' E 015°16'  
2016-Aug-20 01:30N 37°44' E 015°13'  
Track history (hours):
 
Tides and Currents Weather Stations Pressure Air Temp Water Temp Dewpoint Dewpoint Depression Visibility Wind Speed Wind Dir Waves Ship Positions

Newvida

Last reported at 2016-Aug-29 15:22 UTC. Time now 2016-Aug-29 18:00 UTC.
Position N 40°32' E 014°15'.

Length 56 m; draft 2.4 m.

Type: Pleasure craft. MMSI: 538080049.

Date/timePositionNaut miles runAvg speedWind from/ knotsBaromVisibWave heightAir tempDewpointWater temp
2016-Aug-29 15:22N 40°32' E 014°15'0 0.0
2016-Aug-29 13:25N 40°32' E 014°15'0 0.0
2016-Aug-28 23:32N 40°32' E 014°15'0 0.0
2016-Aug-28 16:11N 40°32' E 014°15'0 0.0
2016-Aug-28 15:23N 40°32' E 014°15'0 0.0
2016-Aug-28 14:32N 40°32' E 014°15'0 0.0
2016-Aug-28 13:32N 40°32' E 014°15'0 0.0
2016-Aug-28 12:29N 40°32' E 014°15'0 0.0
2016-Aug-28 11:32N 40°32' E 014°15'  
2016-Aug-24 20:19N 39°03' E 015°05'1810.3
2016-Aug-24 18:31N 38°45' E 015°08'8 7.4
2016-Aug-24 17:29N 38°37' E 015°04'0 0.0
2016-Aug-24 16:22N 38°37' E 015°04'0 0.0
2016-Aug-24 06:24N 38°37' E 015°04'11 5.5
2016-Aug-24 04:28N 38°28' E 014°58'0 0.0
2016-Aug-24 03:25N 38°28' E 014°58'0 0.0
2016-Aug-24 02:19N 38°28' E 014°58'0 0.0
2016-Aug-23 21:10N 38°28' E 014°58'0 0.0
2016-Aug-23 16:31N 38°28' E 014°58'0 0.0
2016-Aug-23 11:07N 38°28' E 014°58'0 0.0
2016-Aug-23 10:19N 38°28' E 014°58'0 0.0
2016-Aug-23 09:04N 38°28' E 014°58'0 0.0
2016-Aug-23 07:13N 38°28' E 014°58'0 0.0
2016-Aug-23 05:22N 38°28' E 014°58'0 0.0
2016-Aug-23 03:28N 38°28' E 014°58'0 0.0
2016-Aug-23 02:31N 38°28' E 014°58'0 0.0
2016-Aug-23 00:16N 38°28' E 014°58'1 1.0
2016-Aug-22 23:33N 38°28' E 014°58'1110.9
2016-Aug-22 22:32N 38°25' E 015°12'1111.4
2016-Aug-22 21:33N 38°22' E 015°26'1010.5
2016-Aug-22 20:33N 38°19' E 015°39'7 7.0
2016-Aug-22 19:33N 38°12' E 015°37'1110.8
2016-Aug-22 18:33N 38°02' E 015°33'9 9.1
2016-Aug-22 17:33N 37°56' E 015°25'8 8.1
2016-Aug-22 16:33N 37°50' E 015°18'1 0.7
2016-Aug-22 15:33N 37°50' E 015°17'0 0.0
2016-Aug-22 14:33N 37°50' E 015°17'0 0.0
2016-Aug-22 13:33N 37°50' E 015°17'3 0.8
2016-Aug-22 10:33N 37°48' E 015°16'  
2016-Aug-20 01:30N 37°44' E 015°13'  

Dump ship's entire track history